Time;durP1;ratioP1;P1;durP2;ratioP2;P2;SDS_P1;SDS_P2;PMS_P1;PMS_P2;Temp;Humidity;BMP_temperature;BMP_pressure;BME280_temperature;BME280_humidity;BME280_pressure;Samples;Min_cycle;Max_cycle;Signal;HPM_P1;HPM_P2
2022/01/18 00:01:28;;;;;;;7.40;2.38;;;0.60;99.90;;;;;;6246721;23;20031;-79
2022/01/18 00:03:54;;;;;;;3.83;1.77;;;0.60;99.90;;;;;;6247076;23;20407;-78
2022/01/18 00:06:20;;;;;;;4.57;2.00;;;0.60;99.90;;;;;;6246110;23;20003;-78
2022/01/18 00:08:46;;;;;;;6.07;1.80;;;0.60;99.90;;;;;;6247213;23;20000;-78
2022/01/18 00:11:12;;;;;;;9.55;2.20;;;0.60;99.90;;;;;;6247009;23;20004;-78
2022/01/18 00:13:43;;;;;;;3.88;1.98;;;0.70;99.90;;;;;;6220560;23;20008;-78
2022/01/18 00:16:26;;;;;;;3.58;1.90;;;0.70;99.90;;;;;;6247147;23;19996;-78
2022/01/18 00:18:53;;;;;;;5.43;1.90;;;0.70;99.90;;;;;;6247239;23;20032;-78
2022/01/18 00:21:30;;;;;;;5.78;2.38;;;0.60;99.90;;;;;;6220514;23;20075;-78
2022/01/18 00:23:58;;;;;;;6.28;1.83;;;0.60;99.90;;;;;;6220584;23;20000;-77
2022/01/18 00:26:28;;;;;;;2.80;1.63;;;0.70;99.90;;;;;;6247215;23;20067;-80
2022/01/18 00:29:03;;;;;;;3.85;1.70;;;0.60;99.90;;;;;;6247178;23;20008;-78
2022/01/18 00:34:23;;;;;;;2.75;1.63;;;0.60;99.90;;;;;;6246619;23;20444;-78
2022/01/18 00:39:14;;;;;;;2.30;1.67;;;0.50;99.90;;;;;;6247166;23;20011;-77
2022/01/18 00:41:40;;;;;;;7.65;2.33;;;0.40;99.90;;;;;;6246729;23;20043;-77
2022/01/18 00:44:08;;;;;;;3.03;2.20;;;0.40;99.90;;;;;;6219832;23;20430;-78
2022/01/18 00:46:34;;;;;;;4.75;2.10;;;0.40;99.90;;;;;;6247055;23;20030;-77
2022/01/18 00:49:02;;;;;;;4.70;2.13;;;0.30;99.90;;;;;;6246806;23;20288;-77
2022/01/18 00:51:40;;;;;;;4.22;2.30;;;0.30;99.90;;;;;;6219658;23;20004;-78
2022/01/18 00:54:08;;;;;;;3.83;2.17;;;0.30;99.90;;;;;;6220451;23;20153;-77
2022/01/18 00:56:39;;;;;;;4.40;2.17;;;0.20;99.90;;;;;;6219317;23;20138;-77
2022/01/18 00:59:05;;;;;;;4.47;2.20;;;0.20;99.90;;;;;;6220255;23;20096;-78
2022/01/18 01:01:33;;;;;;;5.25;2.20;;;0.20;99.90;;;;;;6246320;23;20268;-77
2022/01/18 01:04:02;;;;;;;3.83;2.35;;;0.20;99.90;;;;;;6219873;23;20058;-78
2022/01/18 01:06:29;;;;;;;5.07;2.30;;;0.20;99.90;;;;;;6220046;23;20058;-78
2022/01/18 01:08:55;;;;;;;4.07;2.20;;;0.30;99.90;;;;;;6246505;23;19996;-78
2022/01/18 01:11:22;;;;;;;4.75;2.40;;;0.30;99.90;;;;;;6219985;23;20011;-77
2022/01/18 01:13:51;;;;;;;6.15;3.10;;;0.30;99.90;;;;;;6220099;23;20048;-77
2022/01/18 01:45:30;;;;;;;6.10;3.15;;;0.50;99.90;;;;;;6256869;23;20427;-77
2022/01/18 01:47:59;;;;;;;5.32;2.90;;;0.50;99.90;;;;;;6246245;23;20027;-77
2022/01/18 01:50:28;;;;;;;6.72;2.90;;;0.50;99.90;;;;;;6220415;23;20315;-77
2022/01/18 01:52:55;;;;;;;4.65;2.67;;;0.50;99.90;;;;;;6249403;23;20000;-76
2022/01/18 01:55:23;;;;;;;12.35;2.88;;;0.50;99.90;;;;;;6247121;23;20000;-77
2022/01/18 01:57:50;;;;;;;5.38;2.60;;;0.40;99.90;;;;;;6221563;23;20008;-77
2022/01/18 02:00:18;;;;;;;4.07;2.38;;;0.40;99.90;;;;;;6246753;23;20001;-78
2022/01/18 02:02:44;;;;;;;2.80;1.98;;;0.40;99.90;;;;;;6220620;23;19997;-78
2022/01/18 02:05:11;;;;;;;2.00;1.63;;;0.40;99.90;;;;;;6221914;23;20000;-78
2022/01/18 02:07:37;;;;;;;3.75;2.25;;;0.30;99.90;;;;;;6248489;23;20001;-78
2022/01/18 02:10:10;;;;;;;4.10;2.28;;;0.40;99.90;;;;;;6222017;23;20007;-77
2022/01/18 02:12:37;;;;;;;3.70;2.40;;;0.40;99.90;;;;;;6221374;23;20000;-77
2022/01/18 02:15:12;;;;;;;3.78;2.17;;;0.40;99.90;;;;;;6221545;23;20005;-77
2022/01/18 02:23:20;;;;;;;3.72;1.52;;;0.50;99.90;;;;;;6248247;23;20419;-77
2022/01/18 02:25:46;;;;;;;3.25;1.67;;;0.50;99.90;;;;;;6222460;23;20028;-77
2022/01/18 02:28:12;;;;;;;2.33;1.40;;;0.50;99.90;;;;;;6248691;23;20478;-77
2022/01/18 02:30:38;;;;;;;2.85;1.75;;;0.50;99.90;;;;;;6221669;23;20390;-77
2022/01/18 02:33:04;;;;;;;2.83;1.67;;;0.60;99.90;;;;;;6248494;23;19996;-78
2022/01/18 02:35:34;;;;;;;4.53;2.35;;;0.50;99.90;;;;;;6248116;23;20000;-78
2022/01/18 02:38:00;;;;;;;5.30;2.47;;;0.50;99.90;;;;;;6221430;23;20012;-77
2022/01/18 02:40:26;;;;;;;3.83;2.08;;;0.50;99.90;;;;;;6221930;23;20431;-77
2022/01/18 02:42:59;;;;;;;3.50;2.10;;;0.50;99.90;;;;;;6221442;23;20000;-77
2022/01/18 02:45:25;;;;;;;4.07;2.17;;;0.40;99.90;;;;;;6248934;23;20000;-77
2022/01/18 02:47:52;;;;;;;6.55;2.75;;;0.40;99.90;;;;;;6248054;23;20004;-76
2022/01/18 02:50:18;;;;;;;5.40;2.95;;;0.40;99.90;;;;;;6221628;23;20000;-79
2022/01/18 02:52:44;;;;;;;7.13;2.28;;;0.20;99.90;;;;;;6221586;23;20051;-78
2022/01/18 02:55:10;;;;;;;2.88;1.80;;;-0.10;99.90;;;;;;6221704;23;20000;-79
2022/01/18 02:57:44;;;;;;;4.88;1.63;;;-0.30;99.90;;;;;;6221457;23;20035;-78
2022/01/18 03:00:30;;;;;;;5.47;1.90;;;-0.60;99.90;;;;;;6248248;23;20048;-78
2022/01/18 03:03:14;;;;;;;4.22;1.90;;;-0.80;99.90;;;;;;6221687;23;20367;-78
2022/01/18 03:05:44;;;;;;;4.68;2.00;;;-1.00;99.90;;;;;;6221887;23;20004;-78
2022/01/18 03:08:11;;;;;;;3.15;1.63;;;-1.10;99.90;;;;;;6221236;23;20000;-79
2022/01/18 03:10:39;;;;;;;4.75;1.75;;;-1.10;99.90;;;;;;6221422;23;20032;-79
2022/01/18 03:13:05;;;;;;;2.00;1.60;;;-1.20;99.90;;;;;;6247726;23;20079;-77
2022/01/18 03:15:33;;;;;;;5.30;1.92;;;-1.20;99.90;;;;;;6247741;23;20054;-78
2022/01/18 03:18:00;;;;;;;2.78;1.50;;;-1.20;99.90;;;;;;6247486;23;20009;-78
2022/01/18 03:20:26;;;;;;;2.83;1.80;;;-1.30;99.90;;;;;;6221537;23;20004;-78
2022/01/18 03:22:52;;;;;;;4.00;1.77;;;-1.20;99.90;;;;;;6221067;23;19996;-78
2022/01/18 03:28:06;;;;;;;2.65;1.75;;;-1.20;99.90;;;;;;6257477;23;20086;-77
2022/01/18 03:30:38;;;;;;;6.53;2.00;;;-1.20;99.90;;;;;;6220799;23;20075;-77
2022/01/18 03:33:06;;;;;;;4.47;1.75;;;-1.20;99.90;;;;;;6220907;23;20007;-78
2022/01/18 03:35:33;;;;;;;2.15;1.70;;;-1.20;99.90;;;;;;6220534;23;20007;-79
2022/01/18 03:37:59;;;;;;;4.30;1.88;;;-1.20;99.90;;;;;;6220313;23;20347;-78
2022/01/18 03:40:25;;;;;;;3.35;1.77;;;-1.30;99.90;;;;;;6220444;23;20026;-78
2022/01/18 03:42:52;;;;;;;3.55;2.10;;;-1.40;99.90;;;;;;6221026;23;20063;-78
2022/01/18 03:45:42;;;;;;;1.80;1.58;;;-1.40;99.90;;;;;;6220936;23;20099;-78
2022/01/18 03:48:27;;;;;;;2.28;1.40;;;-1.40;99.90;;;;;;6247775;23;19997;-79
2022/01/18 03:50:53;;;;;;;2.60;1.50;;;-1.40;99.90;;;;;;6247397;23;20415;-78
2022/01/18 03:53:20;;;;;;;2.45;1.38;;;-1.30;99.90;;;;;;6247170;23;20004;-79
2022/01/18 03:55:46;;;;;;;2.45;1.52;;;-1.30;99.90;;;;;;6247165;23;20040;-78
2022/01/18 03:58:12;;;;;;;3.35;1.40;;;-1.30;99.90;;;;;;6220994;23;20031;-77
2022/01/18 04:00:38;;;;;;;2.85;1.40;;;-1.30;99.90;;;;;;6247280;23;20439;-78
2022/01/18 04:03:03;;;;;;;2.08;1.52;;;-1.30;99.90;;;;;;6247018;23;19996;-78
2022/01/18 04:05:29;;;;;;;3.55;1.70;;;-1.40;99.90;;;;;;6220514;23;20014;-79
2022/01/18 04:07:55;;;;;;;3.13;1.50;;;-1.40;99.90;;;;;;6220472;23;20374;-77
2022/01/18 04:10:21;;;;;;;1.70;1.40;;;-1.40;99.90;;;;;;6220828;23;19996;-79
2022/01/18 04:12:47;;;;;;;2.90;1.33;;;-1.40;99.90;;;;;;6246881;23;20435;-79
2022/01/18 04:15:15;;;;;;;3.47;1.35;;;-1.40;99.90;;;;;;6247360;23;20007;-78
2022/01/18 04:28:27;;;;;;;2.90;1.58;;;-2.00;99.90;;;;;;6247682;23;20024;-78
2022/01/18 04:30:53;;;;;;;5.00;1.90;;;-2.00;99.90;;;;;;6220367;23;20007;-79
2022/01/18 04:33:19;;;;;;;3.22;1.55;;;-2.10;99.90;;;;;;6247199;23;20004;-79
2022/01/18 04:35:45;;;;;;;6.85;1.90;;;-2.00;99.90;;;;;;6246864;23;20104;-79
2022/01/18 04:38:11;;;;;;;4.70;2.05;;;-2.00;99.90;;;;;;6219988;23;20087;-79
2022/01/18 04:40:40;;;;;;;4.97;1.50;;;-2.00;99.90;;;;;;6246815;23;20028;-79
2022/01/18 04:43:42;;;;;;;3.75;1.40;;;-1.90;99.90;;;;;;6220068;23;20016;-78
2022/01/18 04:48:52;;;;;;;4.43;2.00;;;-2.00;99.90;;;;;;6246739;23;20012;-78
2022/01/18 04:51:18;;;;;;;7.10;1.50;;;-2.10;99.90;;;;;;6219874;23;20012;-78
2022/01/18 04:53:51;;;;;;;3.15;1.40;;;-2.20;99.90;;;;;;6246755;23;20000;-78
2022/01/18 04:59:17;;;;;;;4.78;1.10;;;-2.50;99.90;;;;;;6184752;23;20015;-80
2022/01/18 05:01:52;;;;;;;1.83;1.60;;;-2.50;99.90;;;;;;6246608;23;20003;-78
2022/01/18 05:04:17;;;;;;;3.00;1.60;;;-2.60;99.90;;;;;;6220486;23;20086;-80
2022/01/18 05:06:44;;;;;;;2.40;1.30;;;-2.60;99.90;;;;;;6220247;23;20004;-79
2022/01/18 05:09:12;;;;;;;1.50;1.20;;;-2.50;99.90;;;;;;6246201;23;20000;-79
2022/01/18 05:11:53;;;;;;;1.88;1.25;;;-2.50;99.90;;;;;;6246776;23;20461;-79
2022/01/18 05:14:33;;;;;;;1.40;1.20;;;-2.40;99.90;;;;;;6220562;23;20011;-78
2022/01/18 05:17:14;;;;;;;1.73;1.30;;;-2.40;99.90;;;;;;6246273;23;20012;-77
2022/01/18 05:19:45;;;;;;;;;;;-2.40;99.70;;;;;;6220283;23;20233;-79
2022/01/18 05:24:55;;;;;;;3.03;1.42;;;-2.40;80.10;;;;;;6246034;23;19905;-78
2022/01/18 05:27:21;;;;;;;2.75;1.27;;;-2.40;95.80;;;;;;6219375;23;20087;-78
2022/01/18 05:29:46;;;;;;;2.17;1.20;;;-2.40;94.40;;;;;;6219785;23;20008;-78
2022/01/18 05:32:12;;;;;;;1.77;1.10;;;-2.40;97.90;;;;;;6219266;23;20007;-78
2022/01/18 05:34:38;;;;;;;8.18;1.20;;;-2.40;97.50;;;;;;6219264;23;20004;-79
2022/01/18 05:37:04;;;;;;;3.15;1.40;;;-2.50;95.50;;;;;;6246493;23;20489;-79
2022/01/18 05:39:30;;;;;;;2.50;1.30;;;-2.50;95.90;;;;;;6248660;23;20008;-78
2022/01/18 05:41:55;;;;;;;2.05;1.40;;;-2.50;96.10;;;;;;6248499;23;20015;-77
2022/01/18 05:44:23;;;;;;;3.55;1.92;;;-2.50;95.60;;;;;;6247998;23;20006;-77
2022/01/18 05:46:48;;;;;;;2.22;1.33;;;-2.50;93.70;;;;;;6247939;23;20086;-77
2022/01/18 05:49:14;;;;;;;5.63;1.70;;;-2.50;94.80;;;;;;6248211;23;20358;-78
2022/01/18 05:51:41;;;;;;;5.88;1.40;;;-2.50;93.50;;;;;;6220650;23;20000;-78
2022/01/18 05:54:07;;;;;;;2.13;1.40;;;-2.50;92.50;;;;;;6220185;23;20050;-79
2022/01/18 05:56:33;;;;;;;5.05;1.75;;;-2.50;92.70;;;;;;6220047;23;20442;-78
2022/01/18 05:59:02;;;;;;;6.55;1.92;;;-2.60;91.10;;;;;;6241748;23;20000;-79
2022/01/18 06:01:33;;;;;;;4.20;1.63;;;-2.60;92.50;;;;;;6215790;23;20015;-79
2022/01/18 06:09:11;;;;;;;3.15;1.50;;;-2.60;93.00;;;;;;6241864;23;20007;-80
2022/01/18 06:11:37;;;;;;;2.33;1.58;;;-2.50;94.50;;;;;;6244015;23;20046;-81
2022/01/18 06:14:06;;;;;;;3.45;1.50;;;-2.50;94.90;;;;;;6216185;23;20001;-79
2022/01/18 06:16:32;;;;;;;1.85;1.40;;;-2.60;94.30;;;;;;6214404;23;20438;-80
2022/01/18 06:18:58;;;;;;;86.43;48.70;;;-2.50;94.50;;;;;;6243196;23;20000;-87
2022/01/18 06:21:26;;;;;;;101.03;48.53;;;-2.50;94.50;;;;;;6243759;23;20479;-78
2022/01/18 06:23:52;;;;;;;26.30;13.07;;;-2.50;95.80;;;;;;6240772;23;19996;-79
2022/01/18 06:26:18;;;;;;;11.85;6.15;;;-2.50;94.00;;;;;;6242257;23;20004;-84
2022/01/18 06:28:44;;;;;;;5.10;2.88;;;-2.50;94.40;;;;;;6216284;23;20027;-79
2022/01/18 06:31:10;;;;;;;3.20;1.80;;;-2.60;94.20;;;;;;6240792;23;19992;-79
2022/01/18 06:33:36;;;;;;;3.53;1.65;;;-2.60;93.70;;;;;;6215034;23;20000;-85
2022/01/18 06:36:15;;;;;;;3.38;1.77;;;-2.60;95.40;;;;;;6214893;23;20079;-81
2022/01/18 06:38:56;;;;;;;3.35;1.48;;;-2.60;94.50;;;;;;6216223;23;20804;-82
2022/01/18 06:41:22;;;;;;;3.13;1.38;;;-2.60;95.30;;;;;;6214553;23;20022;-81
2022/01/18 06:43:48;;;;;;;19.58;8.93;;;-2.60;97.40;;;;;;6216735;23;20046;-83
2022/01/18 06:46:16;;;;;;;249.48;111.30;;;-2.70;96.50;;;;;;6217162;23;20011;-82
2022/01/18 06:48:44;;;;;;;68.75;32.08;;;-2.60;97.50;;;;;;6215844;23;20001;-89
2022/01/18 06:51:11;;;;;;;31.35;12.82;;;-2.60;98.00;;;;;;6215140;23;20048;-82
2022/01/18 06:53:44;;;;;;;11.07;5.35;;;-2.60;98.30;;;;;;6241056;23;20079;-76
2022/01/18 06:56:09;;;;;;;5.78;2.72;;;-2.60;98.80;;;;;;6213110;23;20338;-77
2022/01/18 06:58:35;;;;;;;2.40;1.75;;;-2.60;98.40;;;;;;6215088;23;20012;-80
2022/01/18 07:01:01;;;;;;;2.60;1.60;;;-2.70;98.60;;;;;;6214953;23;20000;-79
2022/01/18 07:03:26;;;;;;;7.85;1.60;;;-2.70;98.30;;;;;;6214565;23;20004;-78
2022/01/18 07:05:52;;;;;;;2.15;1.60;;;-2.70;98.90;;;;;;6215302;23;20043;-79
2022/01/18 07:08:18;;;;;;;2.22;1.60;;;-2.60;99.90;;;;;;6241043;23;20000;-78
2022/01/18 07:10:43;;;;;;;2.00;1.60;;;-2.60;99.50;;;;;;6241582;23;20003;-84
2022/01/18 07:13:14;;;;;;;2.90;1.73;;;-2.60;99.50;;;;;;6242132;23;19996;-80
2022/01/18 07:18:36;;;;;;;224.70;85.65;;;-2.60;99.60;;;;;;6240868;23;20016;-79
2022/01/18 07:21:10;;;;;;;66.40;29.77;;;-2.50;99.90;;;;;;6214442;23;20011;-81
2022/01/18 07:23:42;;;;;;;22.77;10.13;;;-2.40;99.90;;;;;;6240499;23;19996;-80
2022/01/18 07:26:11;;;;;;;8.90;4.70;;;-2.40;99.50;;;;;;6213936;23;20004;-80
2022/01/18 07:28:37;;;;;;;6.30;2.28;;;-2.30;99.90;;;;;;6210984;23;20000;-82
2022/01/18 07:31:03;;;;;;;10.15;2.15;;;-2.30;99.90;;;;;;6238208;23;20483;-86
2022/01/18 07:33:32;;;;;;;5.55;1.60;;;-2.40;97.80;;;;;;6211557;23;20429;-81
2022/01/18 07:35:57;;;;;;;2.85;1.80;;;-2.30;97.50;;;;;;6211544;23;20363;-80
2022/01/18 07:38:23;;;;;;;2.65;1.65;;;-2.30;98.80;;;;;;6211277;23;20039;-83
2022/01/18 07:40:50;;;;;;;2.83;1.80;;;-2.30;96.40;;;;;;6212575;23;20000;-80
2022/01/18 07:43:17;;;;;;;5.75;2.05;;;-2.30;97.90;;;;;;6211530;23;20007;-79
2022/01/18 07:45:48;;;;;;;3.28;1.67;;;-2.20;98.20;;;;;;6186937;23;20424;-85
2022/01/18 07:48:14;;;;;;;2.78;1.80;;;-2.20;94.00;;;;;;6213337;23;20300;-86
2022/01/18 07:50:41;;;;;;;3.13;1.55;;;-2.10;97.30;;;;;;6215613;23;20000;-80
2022/01/18 07:53:11;;;;;;;3.47;1.70;;;-2.10;97.70;;;;;;6241969;23;20000;-80
2022/01/18 07:55:47;;;;;;;4.03;1.73;;;-2.00;96.80;;;;;;6241969;23;20407;-87
2022/01/18 07:58:26;;;;;;;11.38;1.90;;;-2.00;96.00;;;;;;6214882;23;20024;-87
2022/01/18 08:00:52;;;;;;;2.65;1.67;;;-1.90;93.40;;;;;;6214085;23;20004;-84
2022/01/18 08:03:20;;;;;;;2.67;1.85;;;-1.90;93.50;;;;;;6215988;23;20680;-80
2022/01/18 08:05:47;;;;;;;2.60;1.58;;;-1.90;92.10;;;;;;6215891;23;20500;-81
2022/01/18 08:08:13;;;;;;;2.55;1.67;;;-1.90;91.30;;;;;;6216300;23;20012;-82
2022/01/18 08:10:41;;;;;;;2.67;1.60;;;-1.90;92.00;;;;;;6216482;23;20407;-81
2022/01/18 08:13:10;;;;;;;1.70;1.35;;;-1.80;92.60;;;;;;6215749;23;20091;-82
2022/01/18 08:15:39;;;;;;;4.20;1.73;;;-1.70;92.70;;;;;;6242943;23;20039;-80
2022/01/18 08:18:14;;;;;;;2.67;1.50;;;-1.70;91.20;;;;;;6242890;23;20012;-86
2022/01/18 08:20:40;;;;;;;2.85;1.90;;;-1.70;86.90;;;;;;6216563;23;20154;-84
2022/01/18 08:23:06;;;;;;;3.17;1.70;;;-1.60;90.90;;;;;;6215651;23;20304;-81
2022/01/18 08:25:34;;;;;;;3.13;1.52;;;-1.50;90.50;;;;;;6242032;23;19996;-81
2022/01/18 08:28:01;;;;;;;4.68;2.05;;;-1.50;87.50;;;;;;6215575;23;20047;-87
2022/01/18 08:30:27;;;;;;;2.08;1.48;;;-1.40;89.00;;;;;;6242504;23;19992;-81
2022/01/18 08:33:01;;;;;;;3.70;1.80;;;-1.40;89.20;;;;;;6215641;23;20004;-82
2022/01/18 08:35:31;;;;;;;3.60;1.58;;;-1.40;85.90;;;;;;6215841;23;20058;-81
2022/01/18 08:38:00;;;;;;;7.07;1.73;;;-1.30;87.90;;;;;;6215439;23;20442;-85
2022/01/18 08:40:38;;;;;;;2.40;1.60;;;-1.30;85.90;;;;;;6242210;23;20074;-82
2022/01/18 08:43:06;;;;;;;3.88;1.63;;;-1.30;89.90;;;;;;6243260;23;20003;-82
2022/01/18 08:45:38;;;;;;;2.60;1.60;;;-1.20;87.50;;;;;;6215149;23;20007;-82
2022/01/18 08:48:04;;;;;;;2.92;1.60;;;-1.30;86.60;;;;;;6215059;23;20023;-81
2022/01/18 08:50:31;;;;;;;3.60;1.98;;;-1.20;87.30;;;;;;6241518;23;20318;-84
2022/01/18 08:53:15;;;;;;;2.80;1.92;;;-1.20;87.10;;;;;;6215169;23;20148;-84
2022/01/18 08:56:04;;;;;;;2.95;1.52;;;-1.20;83.30;;;;;;6213322;23;20956;-90
2022/01/18 08:58:34;;;;;;;5.22;1.80;;;-1.20;87.30;;;;;;6212927;23;20016;-81
2022/01/18 09:01:01;;;;;;;4.03;1.75;;;-1.20;86.60;;;;;;6215512;23;20032;-85
2022/01/18 09:03:27;;;;;;;4.00;1.80;;;-1.20;86.50;;;;;;6243967;23;20468;-82
2022/01/18 09:05:53;;;;;;;4.45;1.80;;;-1.20;87.20;;;;;;6214496;23;20011;-81
2022/01/18 09:08:25;;;;;;;2.92;1.80;;;-1.20;86.10;;;;;;6243600;23;20004;-87
2022/01/18 09:11:06;;;;;;;3.25;1.70;;;-1.10;87.70;;;;;;6216381;23;20083;-86
2022/01/18 09:13:34;;;;;;;4.70;1.98;;;-1.00;85.80;;;;;;6242498;23;20083;-89
2022/01/18 09:16:00;;;;;;;10.75;1.60;;;-0.80;82.90;;;;;;6215902;23;20303;-81
2022/01/18 09:18:29;;;;;;;3.15;1.88;;;-0.80;82.70;;;;;;6215583;23;20028;-81
2022/01/18 09:21:00;;;;;;;3.60;1.85;;;-0.80;82.20;;;;;;6219831;23;20000;-81
2022/01/18 09:23:28;;;;;;;2.75;1.80;;;-0.70;83.10;;;;;;6218712;23;20322;-87
2022/01/18 09:25:57;;;;;;;3.67;2.08;;;-0.80;82.30;;;;;;6216156;23;20084;-81
2022/01/18 09:28:23;;;;;;;4.47;2.50;;;-0.90;81.00;;;;;;6241917;23;20395;-83
2022/01/18 09:30:52;;;;;;;4.30;2.33;;;-1.00;82.70;;;;;;6215460;23;20000;-87
2022/01/18 09:33:17;;;;;;;3.40;1.88;;;-1.00;85.00;;;;;;6243045;23;20000;-82
2022/01/18 09:35:43;;;;;;;2.53;1.80;;;-1.10;81.30;;;;;;6242253;23;20595;-81
2022/01/18 09:38:09;;;;;;;3.05;2.00;;;-1.10;81.60;;;;;;6242153;23;20433;-82
2022/01/18 09:40:38;;;;;;;4.93;2.45;;;-1.00;85.50;;;;;;6244087;23;20063;-83
2022/01/18 09:43:10;;;;;;;4.47;2.25;;;-0.70;84.50;;;;;;6216346;23;20438;-82
2022/01/18 09:45:36;;;;;;;4.97;2.33;;;-0.20;80.90;;;;;;6242922;23;20001;-83
2022/01/18 09:48:03;;;;;;;3.15;1.75;;;0.20;81.80;;;;;;6217059;23;19996;-85
2022/01/18 09:50:31;;;;;;;3.25;1.88;;;0.30;84.00;;;;;;6216817;23;20000;-80
2022/01/18 09:52:59;;;;;;;3.40;1.77;;;0.40;79.10;;;;;;6216504;23;20007;-80
2022/01/18 09:55:27;;;;;;;3.90;1.85;;;0.50;82.10;;;;;;6242429;23;20110;-81
2022/01/18 09:57:55;;;;;;;3.42;1.58;;;0.90;81.40;;;;;;6216059;23;20039;-85
2022/01/18 10:00:23;;;;;;;3.13;1.52;;;1.20;80.00;;;;;;6217124;23;20011;-81
2022/01/18 10:02:51;;;;;;;4.88;1.77;;;1.30;77.20;;;;;;6215081;23;20008;-81
2022/01/18 10:05:28;;;;;;;3.17;1.88;;;1.30;77.30;;;;;;6214783;23;20000;-82
2022/01/18 10:08:12;;;;;;;3.33;1.70;;;1.40;72.00;;;;;;6215238;23;20004;-85
2022/01/18 10:10:47;;;;;;;2.03;1.50;;;1.30;74.60;;;;;;6216149;23;20024;-82
2022/01/18 10:13:27;;;;;;;3.97;1.80;;;1.20;75.20;;;;;;6215791;23;20434;-82
2022/01/18 10:16:09;;;;;;;3.28;1.80;;;0.90;75.10;;;;;;6242991;23;20054;-82
2022/01/18 10:18:46;;;;;;;3.65;1.70;;;0.60;72.30;;;;;;6216375;23;20070;-82
2022/01/18 10:21:35;;;;;;;3.42;1.73;;;0.60;79.80;;;;;;6216356;23;20008;-82
2022/01/18 10:24:20;;;;;;;2.30;1.40;;;0.70;74.90;;;;;;6244196;23;20378;-85
2022/01/18 10:26:49;;;;;;;3.90;1.48;;;0.90;74.10;;;;;;6216384;23;20023;-82
2022/01/18 10:29:17;;;;;;;4.07;1.70;;;1.10;75.30;;;;;;6215451;23;20095;-90
2022/01/18 10:31:57;;;;;;;3.15;1.90;;;1.40;78.10;;;;;;6216543;23;20004;-82
2022/01/18 10:37:03;;;;;;;2.40;1.77;;;1.70;74.40;;;;;;6245476;23;20477;-86
2022/01/18 10:39:38;;;;;;;3.35;1.60;;;1.60;74.10;;;;;;6217066;23;20218;-81
2022/01/18 10:42:13;;;;;;;3.45;1.60;;;1.50;72.70;;;;;;6216521;23;20000;-81
2022/01/18 10:44:39;;;;;;;4.05;2.00;;;1.50;72.70;;;;;;6244037;23;19997;-81
2022/01/18 10:47:05;;;;;;;3.47;1.85;;;1.40;73.50;;;;;;6243409;23;20000;-82
2022/01/18 10:50:10;;;;;;;4.95;2.13;;;1.10;74.00;;;;;;6216808;23;20051;-81
2022/01/18 10:52:35;;;;;;;3.38;1.90;;;0.80;69.70;;;;;;6217358;23;20011;-81
2022/01/18 10:55:01;;;;;;;3.50;2.15;;;0.50;76.50;;;;;;6216367;23;19996;-80
2022/01/18 10:57:38;;;;;;;2.75;1.90;;;0.50;77.10;;;;;;6243482;23;20023;-83
2022/01/18 11:00:07;;;;;;;3.97;1.90;;;0.90;75.90;;;;;;6243387;23;20000;-85
2022/01/18 11:02:44;;;;;;;3.35;1.80;;;1.00;74.30;;;;;;6216503;23;20036;-84
2022/01/18 11:05:28;;;;;;;4.60;1.90;;;0.80;73.10;;;;;;6213159;23;20330;-81
2022/01/18 11:07:56;;;;;;;6.30;1.92;;;0.50;71.70;;;;;;6216731;23;20131;-88
2022/01/18 11:10:26;;;;;;;2.92;1.73;;;0.20;76.10;;;;;;6217318;23;20012;-83
2022/01/18 11:13:03;;;;;;;3.90;1.80;;;0.00;78.20;;;;;;6214865;23;20004;-81
2022/01/18 11:15:35;;;;;;;2.17;1.60;;;-0.20;77.80;;;;;;6215986;23;20062;-83
2022/01/18 11:18:03;;;;;;;3.55;1.98;;;-0.20;79.10;;;;;;6215685;23;20050;-81
2022/01/18 11:20:32;;;;;;;3.88;1.90;;;-0.10;81.70;;;;;;6216162;23;20083;-91
2022/01/18 11:22:58;;;;;;;3.20;1.95;;;0.50;84.30;;;;;;6216586;23;19996;-81
2022/01/18 11:25:28;;;;;;;2.88;1.85;;;1.40;83.60;;;;;;6218560;23;20011;-82
2022/01/18 11:27:57;;;;;;;3.58;1.65;;;2.10;81.20;;;;;;6243351;23;20019;-81
2022/01/18 11:30:31;;;;;;;9.18;2.08;;;2.60;78.50;;;;;;6216349;23;20341;-87
2022/01/18 11:32:59;;;;;;;4.28;1.90;;;3.10;80.10;;;;;;6216190;23;20142;-84
2022/01/18 11:36:00;;;;;;;2.80;1.75;;;3.20;71.50;;;;;;6215942;23;20027;-82
2022/01/18 11:38:35;;;;;;;2.65;1.63;;;2.90;66.80;;;;;;6215999;23;20023;-81
2022/01/18 11:41:05;;;;;;;5.15;1.92;;;2.20;68.00;;;;;;6215401;23;20018;-82
2022/01/18 11:43:47;;;;;;;2.63;1.70;;;1.90;70.80;;;;;;6215063;23;20004;-82
2022/01/18 11:46:44;;;;;;;2.50;1.75;;;1.90;68.50;;;;;;6241954;23;20011;-80
2022/01/18 11:49:22;;;;;;;3.30;1.65;;;1.80;68.90;;;;;;6215882;23;20090;-86
2022/01/18 11:51:57;;;;;;;4.07;1.50;;;1.70;69.30;;;;;;6241613;23;20007;-82
2022/01/18 11:54:39;;;;;;;3.85;1.98;;;1.60;69.90;;;;;;6243199;23;20003;-86
2022/01/18 11:57:25;;;;;;;3.05;2.00;;;1.60;69.30;;;;;;6215328;23;20019;-87
2022/01/18 12:00:14;;;;;;;3.60;2.13;;;1.70;63.40;;;;;;6215390;23;19999;-81
2022/01/18 12:02:47;;;;;;;4.25;2.03;;;1.50;65.20;;;;;;6215641;23;20435;-81
2022/01/18 12:05:20;;;;;;;2.85;1.70;;;1.30;69.30;;;;;;6215319;23;20001;-81
2022/01/18 12:08:00;;;;;;;6.30;2.40;;;1.10;70.60;;;;;;6242574;23;20458;-81
2022/01/18 12:10:38;;;;;;;4.10;1.85;;;1.10;71.60;;;;;;6216821;23;20087;-80
2022/01/18 12:13:25;;;;;;;3.05;1.85;;;1.00;71.50;;;;;;6216963;23;20004;-82
2022/01/18 12:15:56;;;;;;;3.15;2.15;;;1.00;71.20;;;;;;6215012;23;20011;-84
2022/01/18 12:18:27;;;;;;;5.15;2.60;;;0.80;70.90;;;;;;6214633;23;20024;-83
2022/01/18 12:20:59;;;;;;;4.03;2.00;;;0.50;68.20;;;;;;6215443;23;20000;-83
2022/01/18 12:23:41;;;;;;;2.45;1.60;;;0.30;69.60;;;;;;6215798;23;20082;-82
2022/01/18 12:26:26;;;;;;;6.28;2.10;;;0.00;71.10;;;;;;6217472;23;20006;-81
2022/01/18 12:29:20;;;;;;;3.63;2.10;;;-0.10;74.20;;;;;;6216891;23;20477;-90
2022/01/18 12:34:37;;;;;;;13.55;2.53;;;-0.30;77.10;;;;;;6242972;23;20008;-82
2022/01/18 12:37:06;;;;;;;4.55;2.10;;;-0.40;72.60;;;;;;6199395;23;20008;-81
2022/01/18 12:45:15;;;;;;;3.33;2.17;;;-0.80;80.60;;;;;;6243178;23;20054;-82
2022/01/18 12:47:47;;;;;;;2.78;1.88;;;-0.90;80.40;;;;;;6215930;23;20059;-84
2022/01/18 12:50:19;;;;;;;5.65;2.38;;;-0.90;78.90;;;;;;6216637;23;20004;-82
2022/01/18 12:53:00;;;;;;;2.92;2.15;;;-0.90;79.70;;;;;;6216213;23;20470;-81
2022/01/18 12:55:31;;;;;;;4.10;2.22;;;-0.90;78.70;;;;;;6217184;23;20007;-81
2022/01/18 12:58:38;;;;;;;6.68;2.20;;;-0.90;78.70;;;;;;6219437;23;20099;-81
2022/01/18 13:01:17;;;;;;;2.92;1.75;;;-1.00;75.70;;;;;;6139497;23;20000;-80
2022/01/18 13:03:49;;;;;;;3.30;1.80;;;-1.00;76.50;;;;;;6220965;23;20050;-82
2022/01/18 13:06:20;;;;;;;4.15;1.85;;;-1.00;79.30;;;;;;6221528;23;20000;-80
2022/01/18 13:08:59;;;;;;;3.67;2.08;;;-1.00;80.20;;;;;;6226629;23;20012;-81
2022/01/18 13:11:30;;;;;;;4.50;2.33;;;-1.00;79.60;;;;;;6253709;23;20083;-80
2022/01/18 13:14:07;;;;;;;4.22;2.22;;;-0.90;80.30;;;;;;6248719;23;19999;-79
2022/01/18 13:25:07;;;;;;;3.10;1.92;;;-0.60;77.90;;;;;;6124975;23;20017;-80
2022/01/18 13:27:39;;;;;;;5.18;1.85;;;-0.70;78.90;;;;;;6099762;23;20048;-80
2022/01/18 13:30:16;;;;;;;5.15;2.28;;;-0.90;76.70;;;;;;6163955;23;20032;-80
2022/01/18 13:33:05;;;;;;;4.47;2.35;;;-1.00;77.30;;;;;;6219170;23;20011;-81
2022/01/18 13:35:32;;;;;;;4.20;2.10;;;-1.20;79.20;;;;;;6219755;23;20442;-80
2022/01/18 13:38:08;;;;;;;4.47;2.20;;;-1.30;83.40;;;;;;6246042;23;20327;-80
2022/01/18 13:40:36;;;;;;;3.67;2.08;;;-1.50;88.90;;;;;;6219940;23;20020;-79
2022/01/18 13:43:12;;;;;;;5.72;2.20;;;-1.60;90.60;;;;;;6219728;23;20004;-80
2022/01/18 13:45:42;;;;;;;3.83;1.85;;;-1.70;91.20;;;;;;6219599;23;20001;-79
2022/01/18 13:48:13;;;;;;;3.90;2.28;;;-1.90;89.80;;;;;;6218979;23;20099;-83
2022/01/18 13:50:46;;;;;;;7.30;2.50;;;-1.90;90.60;;;;;;6245979;23;20005;-83
2022/01/18 13:53:34;;;;;;;4.40;2.40;;;-1.90;90.00;;;;;;6245143;23;20058;-82
2022/01/18 13:56:15;;;;;;;4.30;2.10;;;-1.90;90.60;;;;;;6218549;23;20434;-83
2022/01/18 13:58:43;;;;;;;5.47;2.47;;;-1.90;88.50;;;;;;6245660;23;20391;-82
2022/01/18 14:01:17;;;;;;;5.70;2.60;;;-1.90;86.90;;;;;;6220526;23;20454;-83
2022/01/18 14:03:46;;;;;;;4.35;2.47;;;-2.00;86.10;;;;;;6220775;23;20431;-83
2022/01/18 14:06:15;;;;;;;3.40;1.98;;;-2.00;85.20;;;;;;6247220;23;20022;-83
2022/01/18 14:08:54;;;;;;;3.05;2.03;;;-2.00;85.30;;;;;;6220684;23;20083;-83
2022/01/18 14:11:31;;;;;;;2.67;1.88;;;-2.00;81.70;;;;;;6221217;23;20055;-82
2022/01/18 14:14:04;;;;;;;3.80;2.15;;;-2.00;84.70;;;;;;6220330;23;20066;-84
2022/01/18 14:16:32;;;;;;;4.10;1.70;;;-2.00;85.90;;;;;;6220237;23;20079;-80
2022/01/18 14:19:08;;;;;;;3.72;2.00;;;-2.10;86.40;;;;;;6220914;23;20091;-81
2022/01/18 14:21:43;;;;;;;3.55;2.17;;;-2.20;86.70;;;;;;6247870;23;19996;-80
2022/01/18 14:24:18;;;;;;;5.05;2.30;;;-2.20;87.50;;;;;;6247856;23;20008;-79
2022/01/18 14:26:58;;;;;;;4.15;1.90;;;-2.20;87.10;;;;;;6248037;23;19993;-81
2022/01/18 14:29:30;;;;;;;3.55;2.10;;;-2.20;85.80;;;;;;6220553;23;20000;-80
2022/01/18 14:32:07;;;;;;;3.30;1.90;;;-2.20;88.30;;;;;;6220917;23;20004;-80
2022/01/18 14:34:35;;;;;;;2.22;1.90;;;-2.20;87.10;;;;;;6247470;23;19996;-80
2022/01/18 14:37:03;;;;;;;4.38;1.75;;;-2.20;88.90;;;;;;6221037;23;20430;-79
2022/01/18 14:39:29;;;;;;;5.97;1.88;;;-2.20;88.90;;;;;;6220922;23;20364;-78